sensor_id;sensor_type;location;lat;lon;timestamp;pressure;altitude;pressure_sealevel;temperature;humidity
71149;BME280;59072;42.144;25.200;2023-02-20T00:00:05;100160.47;;;12.74;53.48
71149;BME280;59072;42.144;25.200;2023-02-20T00:02:33;100174.94;;;12.97;53.09
71149;BME280;59072;42.144;25.200;2023-02-20T00:05:00;100185.78;;;13.02;52.67
71149;BME280;59072;42.144;25.200;2023-02-20T00:07:25;100195.31;;;12.98;52.93
71149;BME280;59072;42.144;25.200;2023-02-20T00:09:50;100197.31;;;13.14;52.38
71149;BME280;59072;42.144;25.200;2023-02-20T00:12:16;100180.84;;;12.87;52.96
71149;BME280;59072;42.144;25.200;2023-02-20T00:14:41;100182.75;;;12.98;52.62
71149;BME280;59072;42.144;25.200;2023-02-20T00:17:07;100196.59;;;13.07;52.38
71149;BME280;59072;42.144;25.200;2023-02-20T00:19:32;100177.38;;;12.98;51.97
71149;BME280;59072;42.144;25.200;2023-02-20T00:21:57;100176.66;;;12.91;52.23
71149;BME280;59072;42.144;25.200;2023-02-20T00:24:23;100204.03;;;13.05;52.18
71149;BME280;59072;42.144;25.200;2023-02-20T00:26:51;100196.72;;;13.12;51.75
71149;BME280;59072;42.144;25.200;2023-02-20T00:29:18;100198.22;;;13.08;52.01
71149;BME280;59072;42.144;25.200;2023-02-20T00:31:52;100181.78;;;12.93;52.25
71149;BME280;59072;42.144;25.200;2023-02-20T00:34:19;100192.84;;;12.84;52.43
71149;BME280;59072;42.144;25.200;2023-02-20T00:36:44;100209.69;;;12.85;53.03
71149;BME280;59072;42.144;25.200;2023-02-20T00:39:10;100206.69;;;12.81;52.75
71149;BME280;59072;42.144;25.200;2023-02-20T00:41:35;100184.69;;;12.79;52.68
71149;BME280;59072;42.144;25.200;2023-02-20T00:44:01;100185.69;;;12.66;53.51
71149;BME280;59072;42.144;25.200;2023-02-20T00:46:26;100194.53;;;12.55;53.51
71149;BME280;59072;42.144;25.200;2023-02-20T00:48:51;100207.81;;;12.62;53.39
71149;BME280;59072;42.144;25.200;2023-02-20T00:51:17;100202.94;;;12.59;53.48
71149;BME280;59072;42.144;25.200;2023-02-20T00:53:42;100178.75;;;12.65;53.04
71149;BME280;59072;42.144;25.200;2023-02-20T00:56:08;100181.19;;;12.67;53.26
71149;BME280;59072;42.144;25.200;2023-02-20T00:58:38;100201.91;;;12.72;53.08
71149;BME280;59072;42.144;25.200;2023-02-20T01:01:03;100201.88;;;12.60;53.57
71149;BME280;59072;42.144;25.200;2023-02-20T01:03:29;100201.16;;;12.53;53.24
71149;BME280;59072;42.144;25.200;2023-02-20T01:05:54;100205.59;;;12.59;53.57
71149;BME280;59072;42.144;25.200;2023-02-20T01:08:20;100197.06;;;12.50;53.56
71149;BME280;59072;42.144;25.200;2023-02-20T01:10:45;100208.13;;;12.54;53.62
71149;BME280;59072;42.144;25.200;2023-02-20T01:13:10;100206.56;;;12.34;54.51
71149;BME280;59072;42.144;25.200;2023-02-20T01:15:36;100207.41;;;12.16;54.21
71149;BME280;59072;42.144;25.200;2023-02-20T01:18:01;100203.63;;;12.24;54.14
71149;BME280;59072;42.144;25.200;2023-02-20T01:20:27;100197.63;;;12.10;54.31
71149;BME280;59072;42.144;25.200;2023-02-20T01:22:52;100179.94;;;12.09;53.95
71149;BME280;59072;42.144;25.200;2023-02-20T01:25:18;100203.94;;;12.16;54.35
71149;BME280;59072;42.144;25.200;2023-02-20T01:27:43;100194.72;;;12.12;54.31
71149;BME280;59072;42.144;25.200;2023-02-20T01:30:09;100207.25;;;12.11;54.55
71149;BME280;59072;42.144;25.200;2023-02-20T01:32:35;100198.06;;;12.07;54.20
71149;BME280;59072;42.144;25.200;2023-02-20T01:35:01;100197.13;;;12.01;54.67
71149;BME280;59072;42.144;25.200;2023-02-20T01:37:26;100180.50;;;11.99;54.21
71149;BME280;59072;42.144;25.200;2023-02-20T01:39:52;100198.06;;;12.07;53.97
71149;BME280;59072;42.144;25.200;2023-02-20T01:42:21;100218.47;;;12.20;53.51
71149;BME280;59072;42.144;25.200;2023-02-20T01:44:47;100213.34;;;12.18;53.78
71149;BME280;59072;42.144;25.200;2023-02-20T01:47:21;100208.31;;;12.10;53.98
71149;BME280;59072;42.144;25.200;2023-02-20T01:49:59;100205.59;;;11.98;53.94
71149;BME280;59072;42.144;25.200;2023-02-20T01:52:30;100223.91;;;12.13;53.90
71149;BME280;59072;42.144;25.200;2023-02-20T01:57:43;100212.41;;;12.13;53.80
71149;BME280;59072;42.144;25.200;2023-02-20T02:00:15;100232.94;;;12.31;53.11
71149;BME280;59072;42.144;25.200;2023-02-20T02:02:57;100232.38;;;12.10;53.68
71149;BME280;59072;42.144;25.200;2023-02-20T02:05:27;100234.00;;;12.11;53.72
71149;BME280;59072;42.144;25.200;2023-02-20T02:07:54;100221.91;;;12.09;53.38
71149;BME280;59072;42.144;25.200;2023-02-20T02:10:25;100237.03;;;12.15;53.69
71149;BME280;59072;42.144;25.200;2023-02-20T02:12:53;100249.22;;;12.11;53.34
71149;BME280;59072;42.144;25.200;2023-02-20T02:15:21;100244.06;;;11.97;53.49
71149;BME280;59072;42.144;25.200;2023-02-20T02:24:10;100261.50;;;12.00;54.05
71149;BME280;59072;42.144;25.200;2023-02-20T02:45:57;100264.44;;;11.48;55.58
71149;BME280;59072;42.144;25.200;2023-02-20T02:50:57;100268.97;;;11.48;55.52
71149;BME280;59072;42.144;25.200;2023-02-20T02:53:25;100261.84;;;11.41;55.39
71149;BME280;59072;42.144;25.200;2023-02-20T02:55:50;100266.19;;;11.36;55.59
71149;BME280;59072;42.144;25.200;2023-02-20T02:58:16;100276.78;;;11.49;54.83
71149;BME280;59072;42.144;25.200;2023-02-20T03:00:50;100289.69;;;11.52;54.75
71149;BME280;59072;42.144;25.200;2023-02-20T03:03:27;100293.06;;;11.41;55.57
71149;BME280;59072;42.144;25.200;2023-02-20T03:06:31;100304.75;;;11.46;55.20
71149;BME280;59072;42.144;25.200;2023-02-20T03:09:13;100307.34;;;11.53;54.85
71149;BME280;59072;42.144;25.200;2023-02-20T03:11:42;100299.03;;;11.43;54.84
71149;BME280;59072;42.144;25.200;2023-02-20T03:14:20;100310.78;;;11.35;55.03
71149;BME280;59072;42.144;25.200;2023-02-20T03:17:14;100328.31;;;11.24;55.97
71149;BME280;59072;42.144;25.200;2023-02-20T03:19:50;100299.38;;;11.21;55.56
71149;BME280;59072;42.144;25.200;2023-02-20T03:25:17;100332.88;;;11.17;56.31
71149;BME280;59072;42.144;25.200;2023-02-20T03:32:41;100330.72;;;11.08;56.54
71149;BME280;59072;42.144;25.200;2023-02-20T03:35:28;100328.13;;;10.94;57.06
71149;BME280;59072;42.144;25.200;2023-02-20T03:38:15;100322.38;;;10.91;57.35
71149;BME280;59072;42.144;25.200;2023-02-20T03:41:04;100314.22;;;10.85;57.21
71149;BME280;59072;42.144;25.200;2023-02-20T03:43:51;100319.16;;;10.82;58.26
71149;BME280;59072;42.144;25.200;2023-02-20T03:46:20;100313.50;;;10.65;58.09
71149;BME280;59072;42.144;25.200;2023-02-20T03:51:15;100318.00;;;10.71;58.77
71149;BME280;59072;42.144;25.200;2023-02-20T03:53:43;100324.28;;;10.83;58.65
71149;BME280;59072;42.144;25.200;2023-02-20T03:56:12;100323.72;;;10.75;58.71
71149;BME280;59072;42.144;25.200;2023-02-20T03:58:41;100305.69;;;10.70;58.56
71149;BME280;59072;42.144;25.200;2023-02-20T04:01:10;100304.66;;;10.71;58.98
71149;BME280;59072;42.144;25.200;2023-02-20T04:03:43;100321.63;;;10.83;58.54
71149;BME280;59072;42.144;25.200;2023-02-20T04:06:11;100319.97;;;10.82;58.81
71149;BME280;59072;42.144;25.200;2023-02-20T04:08:43;100312.81;;;10.76;58.98
71149;BME280;59072;42.144;25.200;2023-02-20T04:11:18;100303.09;;;10.89;58.21
71149;BME280;59072;42.144;25.200;2023-02-20T04:13:46;100333.75;;;11.11;57.81
71149;BME280;59072;42.144;25.200;2023-02-20T04:16:13;100338.66;;;11.14;57.78
71149;BME280;59072;42.144;25.200;2023-02-20T04:18:38;100336.75;;;11.21;57.88
71149;BME280;59072;42.144;25.200;2023-02-20T04:21:10;100325.28;;;11.21;57.43
71149;BME280;59072;42.144;25.200;2023-02-20T04:23:44;100309.72;;;11.11;57.58
71149;BME280;59072;42.144;25.200;2023-02-20T04:26:16;100334.53;;;11.18;57.56
71149;BME280;59072;42.144;25.200;2023-02-20T04:28:43;100334.94;;;11.22;57.43
71149;BME280;59072;42.144;25.200;2023-02-20T04:31:11;100333.66;;;11.24;57.67
71149;BME280;59072;42.144;25.200;2023-02-20T04:33:37;100298.38;;;11.22;57.86
71149;BME280;59072;42.144;25.200;2023-02-20T04:36:03;100296.13;;;11.19;57.44
71149;BME280;59072;42.144;25.200;2023-02-20T04:38:28;100306.16;;;11.24;57.64
71149;BME280;59072;42.144;25.200;2023-02-20T04:40:54;100278.94;;;11.09;57.73
71149;BME280;59072;42.144;25.200;2023-02-20T04:43:20;100296.34;;;11.18;57.84
71149;BME280;59072;42.144;25.200;2023-02-20T04:45:45;100319.38;;;11.12;58.19
71149;BME280;59072;42.144;25.200;2023-02-20T04:48:11;100329.94;;;11.25;57.82
71149;BME280;59072;42.144;25.200;2023-02-20T04:50:36;100309.28;;;10.89;58.44
71149;BME280;59072;42.144;25.200;2023-02-20T04:53:02;100344.47;;;11.04;59.07
71149;BME280;59072;42.144;25.200;2023-02-20T04:55:27;100339.19;;;10.98;59.33
71149;BME280;59072;42.144;25.200;2023-02-20T04:57:54;100353.13;;;11.00;59.03
71149;BME280;59072;42.144;25.200;2023-02-20T05:00:21;100357.00;;;11.04;59.12
71149;BME280;59072;42.144;25.200;2023-02-20T05:02:47;100364.63;;;11.00;58.82
71149;BME280;59072;42.144;25.200;2023-02-20T05:05:19;100351.53;;;10.92;59.47
71149;BME280;59072;42.144;25.200;2023-02-20T05:07:44;100358.72;;;10.92;59.70
71149;BME280;59072;42.144;25.200;2023-02-20T05:10:15;100354.38;;;10.97;59.48
71149;BME280;59072;42.144;25.200;2023-02-20T05:12:40;100329.78;;;10.89;58.83
71149;BME280;59072;42.144;25.200;2023-02-20T05:15:06;100355.59;;;11.01;58.59
71149;BME280;59072;42.144;25.200;2023-02-20T05:17:32;100348.09;;;10.85;59.20
71149;BME280;59072;42.144;25.200;2023-02-20T05:19:57;100377.81;;;10.89;59.19
71149;BME280;59072;42.144;25.200;2023-02-20T05:22:22;100383.22;;;10.75;59.25
71149;BME280;59072;42.144;25.200;2023-02-20T05:24:49;100376.25;;;10.74;58.59
71149;BME280;59072;42.144;25.200;2023-02-20T05:27:20;100384.00;;;10.82;58.30
71149;BME280;59072;42.144;25.200;2023-02-20T05:29:51;100371.34;;;10.71;58.66
71149;BME280;59072;42.144;25.200;2023-02-20T05:32:18;100395.53;;;10.76;57.89
71149;BME280;59072;42.144;25.200;2023-02-20T05:34:46;100394.31;;;10.72;57.73
71149;BME280;59072;42.144;25.200;2023-02-20T05:37:14;100395.09;;;10.79;57.50
71149;BME280;59072;42.144;25.200;2023-02-20T05:39:40;100396.31;;;10.83;57.30
71149;BME280;59072;42.144;25.200;2023-02-20T05:42:06;100421.72;;;10.93;56.76
71149;BME280;59072;42.144;25.200;2023-02-20T05:44:32;100419.66;;;11.01;56.03
71149;BME280;59072;42.144;25.200;2023-02-20T05:46:57;100424.38;;;10.93;56.50
71149;BME280;59072;42.144;25.200;2023-02-20T05:49:24;100415.16;;;10.89;56.41
71149;BME280;59072;42.144;25.200;2023-02-20T05:51:49;100429.47;;;11.01;56.15
71149;BME280;59072;42.144;25.200;2023-02-20T05:54:19;100434.00;;;11.00;56.43
71149;BME280;59072;42.144;25.200;2023-02-20T05:56:45;100422.91;;;11.03;55.81
71149;BME280;59072;42.144;25.200;2023-02-20T05:59:12;100420.09;;;10.92;55.98
71149;BME280;59072;42.144;25.200;2023-02-20T06:01:38;100435.41;;;11.03;55.92
71149;BME280;59072;42.144;25.200;2023-02-20T06:04:04;100415.94;;;11.02;56.01
71149;BME280;59072;42.144;25.200;2023-02-20T06:06:37;100451.34;;;11.23;55.57
71149;BME280;59072;42.144;25.200;2023-02-20T06:09:04;100451.53;;;11.28;55.87
71149;BME280;59072;42.144;25.200;2023-02-20T06:11:32;100446.69;;;11.12;55.90
71149;BME280;59072;42.144;25.200;2023-02-20T06:13:58;100420.38;;;11.15;56.01
71149;BME280;59072;42.144;25.200;2023-02-20T06:16:28;100442.22;;;11.37;55.58
71149;BME280;59072;42.144;25.200;2023-02-20T06:18:54;100441.97;;;11.45;55.47
71149;BME280;59072;42.144;25.200;2023-02-20T06:21:21;100433.81;;;11.65;54.47
71149;BME280;59072;42.144;25.200;2023-02-20T06:23:48;100443.47;;;11.66;54.59
71149;BME280;59072;42.144;25.200;2023-02-20T06:26:17;100473.78;;;11.79;54.47
71149;BME280;59072;42.144;25.200;2023-02-20T06:28:45;100468.94;;;11.69;54.12
71149;BME280;59072;42.144;25.200;2023-02-20T06:31:20;100480.88;;;11.66;54.25
71149;BME280;59072;42.144;25.200;2023-02-20T06:33:46;100473.97;;;11.84;53.88
71149;BME280;59072;42.144;25.200;2023-02-20T06:36:23;100485.16;;;12.06;53.25
71149;BME280;59072;42.144;25.200;2023-02-20T06:38:54;100483.72;;;11.72;52.85
71149;BME280;59072;42.144;25.200;2023-02-20T06:41:20;100488.47;;;12.01;52.51
71149;BME280;59072;42.144;25.200;2023-02-20T06:43:45;100489.13;;;12.22;52.74
71149;BME280;59072;42.144;25.200;2023-02-20T06:46:11;100481.28;;;12.02;52.50
71149;BME280;59072;42.144;25.200;2023-02-20T06:48:53;100461.03;;;12.13;52.30
71149;BME280;59072;42.144;25.200;2023-02-20T06:51:20;100468.22;;;12.12;51.74
71149;BME280;59072;42.144;25.200;2023-02-20T06:53:46;100462.41;;;12.22;52.10
71149;BME280;59072;42.144;25.200;2023-02-20T06:56:17;100468.78;;;12.39;51.82
71149;BME280;59072;42.144;25.200;2023-02-20T06:58:48;100464.06;;;12.60;49.80
71149;BME280;59072;42.144;25.200;2023-02-20T07:01:15;100482.69;;;12.48;50.13
71149;BME280;59072;42.144;25.200;2023-02-20T07:03:40;100475.88;;;12.71;49.61
71149;BME280;59072;42.144;25.200;2023-02-20T07:06:06;100485.75;;;12.70;49.00
71149;BME280;59072;42.144;25.200;2023-02-20T07:08:31;100463.47;;;12.58;49.06
71149;BME280;59072;42.144;25.200;2023-02-20T07:10:57;100460.13;;;12.62;48.23
71149;BME280;59072;42.144;25.200;2023-02-20T07:13:22;100475.66;;;12.91;48.15
71149;BME280;59072;42.144;25.200;2023-02-20T07:15:48;100464.66;;;12.80;48.03
71149;BME280;59072;42.144;25.200;2023-02-20T07:18:15;100452.16;;;12.93;47.91
71149;BME280;59072;42.144;25.200;2023-02-20T07:20:41;100468.97;;;13.00;47.22
71149;BME280;59072;42.144;25.200;2023-02-20T07:23:07;100480.34;;;13.14;46.61
71149;BME280;59072;42.144;25.200;2023-02-20T07:25:32;100459.97;;;12.94;47.24
71149;BME280;59072;42.144;25.200;2023-02-20T07:27:58;100490.97;;;13.02;47.06
71149;BME280;59072;42.144;25.200;2023-02-20T07:30:23;100476.53;;;13.03;46.88
71149;BME280;59072;42.144;25.200;2023-02-20T07:32:50;100478.16;;;13.22;46.58
71149;BME280;59072;42.144;25.200;2023-02-20T07:35:15;100480.38;;;13.25;46.33
71149;BME280;59072;42.144;25.200;2023-02-20T07:37:40;100492.72;;;13.26;46.88
71149;BME280;59072;42.144;25.200;2023-02-20T07:40:06;100474.56;;;13.47;46.39
71149;BME280;59072;42.144;25.200;2023-02-20T07:42:32;100505.22;;;13.51;45.36
71149;BME280;59072;42.144;25.200;2023-02-20T07:44:58;100513.38;;;13.56;45.97
71149;BME280;59072;42.144;25.200;2023-02-20T07:47:23;100496.84;;;13.59;45.83
71149;BME280;59072;42.144;25.200;2023-02-20T07:49:48;100510.16;;;13.66;45.47
71149;BME280;59072;42.144;25.200;2023-02-20T07:52:14;100499.59;;;13.95;45.56
71149;BME280;59072;42.144;25.200;2023-02-20T07:54:39;100489.84;;;14.00;44.36
71149;BME280;59072;42.144;25.200;2023-02-20T07:57:07;100493.78;;;13.86;44.79
71149;BME280;59072;42.144;25.200;2023-02-20T07:59:33;100481.53;;;13.90;44.80
71149;BME280;59072;42.144;25.200;2023-02-20T08:01:59;100489.03;;;14.00;43.91
71149;BME280;59072;42.144;25.200;2023-02-20T08:04:24;100496.81;;;14.01;43.60
71149;BME280;59072;42.144;25.200;2023-02-20T08:06:49;100508.97;;;14.04;43.54
71149;BME280;59072;42.144;25.200;2023-02-20T08:09:15;100517.00;;;14.16;42.92
71149;BME280;59072;42.144;25.200;2023-02-20T08:11:40;100512.47;;;14.28;42.93
71149;BME280;59072;42.144;25.200;2023-02-20T08:14:06;100512.72;;;14.50;42.44
71149;BME280;59072;42.144;25.200;2023-02-20T08:16:31;100499.88;;;14.17;41.55
71149;BME280;59072;42.144;25.200;2023-02-20T08:18:58;100496.88;;;14.49;41.01
71149;BME280;59072;42.144;25.200;2023-02-20T08:21:24;100486.84;;;14.56;40.85
71149;BME280;59072;42.144;25.200;2023-02-20T08:23:49;100507.81;;;14.82;39.58
71149;BME280;59072;42.144;25.200;2023-02-20T08:26:17;100520.34;;;14.65;40.02
71149;BME280;59072;42.144;25.200;2023-02-20T08:28:42;100495.34;;;14.76;39.70
71149;BME280;59072;42.144;25.200;2023-02-20T08:31:07;100505.69;;;14.96;39.37
71149;BME280;59072;42.144;25.200;2023-02-20T08:33:33;100506.88;;;14.89;39.52
71149;BME280;59072;42.144;25.200;2023-02-20T08:36:01;100486.34;;;14.82;38.73
71149;BME280;59072;42.144;25.200;2023-02-20T08:38:35;100495.69;;;14.92;38.48
71149;BME280;59072;42.144;25.200;2023-02-20T08:41:09;100495.19;;;14.95;38.30
71149;BME280;59072;42.144;25.200;2023-02-20T08:43:37;100500.25;;;15.20;37.79
71149;BME280;59072;42.144;25.200;2023-02-20T08:46:04;100456.78;;;14.94;37.26
71149;BME280;59072;42.144;25.200;2023-02-20T08:48:29;100495.53;;;15.39;37.17
71149;BME280;59072;42.144;25.200;2023-02-20T08:50:55;100472.31;;;15.33;37.33
71149;BME280;59072;42.144;25.200;2023-02-20T08:53:21;100478.88;;;15.25;37.61
71149;BME280;59072;42.144;25.200;2023-02-20T08:55:46;100472.59;;;15.65;36.00
71149;BME280;59072;42.144;25.200;2023-02-20T08:58:12;100520.16;;;15.76;35.78
71149;BME280;59072;42.144;25.200;2023-02-20T09:00:38;100482.53;;;15.64;35.00
71149;BME280;59072;42.144;25.200;2023-02-20T09:03:03;100509.16;;;15.78;33.63
71149;BME280;59072;42.144;25.200;2023-02-20T09:05:33;100500.63;;;15.69;34.63
71149;BME280;59072;42.144;25.200;2023-02-20T09:07:59;100496.75;;;15.77;33.80
71149;BME280;59072;42.144;25.200;2023-02-20T09:10:25;100480.34;;;15.61;32.17
71149;BME280;59072;42.144;25.200;2023-02-20T09:12:50;100498.41;;;15.78;31.90
71149;BME280;59072;42.144;25.200;2023-02-20T09:15:15;100506.41;;;16.06;32.05
71149;BME280;59072;42.144;25.200;2023-02-20T09:17:46;100497.19;;;16.02;31.69
71149;BME280;59072;42.144;25.200;2023-02-20T09:20:14;100501.44;;;15.98;32.61
71149;BME280;59072;42.144;25.200;2023-02-20T09:22:40;100517.41;;;16.39;31.70
71149;BME280;59072;42.144;25.200;2023-02-20T09:25:06;100521.81;;;16.45;31.11
71149;BME280;59072;42.144;25.200;2023-02-20T09:27:34;100501.03;;;16.06;31.45
71149;BME280;59072;42.144;25.200;2023-02-20T09:29:59;100520.94;;;16.22;31.37
71149;BME280;59072;42.144;25.200;2023-02-20T09:32:25;100518.72;;;16.02;30.63
71149;BME280;59072;42.144;25.200;2023-02-20T09:34:50;100528.91;;;16.17;29.49
71149;BME280;59072;42.144;25.200;2023-02-20T09:37:15;100509.47;;;16.32;29.18
71149;BME280;59072;42.144;25.200;2023-02-20T09:39:41;100527.44;;;16.43;27.18
71149;BME280;59072;42.144;25.200;2023-02-20T09:42:18;100531.59;;;16.73;27.43
71149;BME280;59072;42.144;25.200;2023-02-20T09:45:05;100547.16;;;16.66;27.53
71149;BME280;59072;42.144;25.200;2023-02-20T09:53:19;100521.47;;;17.19;27.05
71149;BME280;59072;42.144;25.200;2023-02-20T09:55:48;100504.25;;;17.20;26.59
71149;BME280;59072;42.144;25.200;2023-02-20T09:58:36;100523.28;;;17.36;25.55
71149;BME280;59072;42.144;25.200;2023-02-20T10:01:05;100510.13;;;17.17;24.56
71149;BME280;59072;42.144;25.200;2023-02-20T10:03:52;100524.00;;;17.53;25.45
71149;BME280;59072;42.144;25.200;2023-02-20T10:06:20;100505.94;;;17.54;24.38
71149;BME280;59072;42.144;25.200;2023-02-20T10:08:47;100531.91;;;17.38;23.78
71149;BME280;59072;42.144;25.200;2023-02-20T10:11:27;100533.44;;;17.78;23.27
71149;BME280;59072;42.144;25.200;2023-02-20T10:19:17;100535.19;;;17.67;23.32
71149;BME280;59072;42.144;25.200;2023-02-20T10:22:01;100549.69;;;17.61;23.15
71149;BME280;59072;42.144;25.200;2023-02-20T10:27:24;100549.00;;;17.48;23.56
71149;BME280;59072;42.144;25.200;2023-02-20T10:29:50;100538.13;;;18.20;23.11
71149;BME280;59072;42.144;25.200;2023-02-20T10:32:29;100523.16;;;18.39;23.24
71149;BME280;59072;42.144;25.200;2023-02-20T10:37:42;100530.91;;;18.68;22.40
71149;BME280;59072;42.144;25.200;2023-02-20T10:43:24;100532.31;;;18.38;22.62
71149;BME280;59072;42.144;25.200;2023-02-20T10:48:47;100526.00;;;18.60;22.62
71149;BME280;59072;42.144;25.200;2023-02-20T10:51:19;100528.72;;;19.13;22.07
71149;BME280;59072;42.144;25.200;2023-02-20T10:53:55;100535.63;;;18.88;21.75
71149;BME280;59072;42.144;25.200;2023-02-20T10:56:47;100532.31;;;18.38;22.31
71149;BME280;59072;42.144;25.200;2023-02-20T10:59:22;100526.50;;;18.57;22.15
71149;BME280;59072;42.144;25.200;2023-02-20T11:01:55;100519.69;;;18.92;21.75
71149;BME280;59072;42.144;25.200;2023-02-20T11:04:28;100515.81;;;18.77;21.98
71149;BME280;59072;42.144;25.200;2023-02-20T11:06:58;100517.47;;;19.57;22.05
71149;BME280;59072;42.144;25.200;2023-02-20T11:09:24;100520.53;;;19.96;21.66
71149;BME280;59072;42.144;25.200;2023-02-20T11:11:51;100527.03;;;20.41;21.22
71149;BME280;59072;42.144;25.200;2023-02-20T11:14:21;100530.47;;;19.65;20.73
71149;BME280;59072;42.144;25.200;2023-02-20T11:19:27;100524.97;;;19.19;21.51
71149;BME280;59072;42.144;25.200;2023-02-20T11:21:55;100531.56;;;19.64;21.75
71149;BME280;59072;42.144;25.200;2023-02-20T11:24:24;100526.78;;;19.08;21.09
71149;BME280;59072;42.144;25.200;2023-02-20T11:26:56;100510.28;;;18.52;21.85
71149;BME280;59072;42.144;25.200;2023-02-20T11:29:28;100521.03;;;18.84;21.55
71149;BME280;59072;42.144;25.200;2023-02-20T11:32:55;100492.28;;;18.67;22.02
71149;BME280;59072;42.144;25.200;2023-02-20T11:37:46;100510.72;;;19.64;22.48
71149;BME280;59072;42.144;25.200;2023-02-20T11:42:39;100509.72;;;19.76;21.01
71149;BME280;59072;42.144;25.200;2023-02-20T11:48:10;100511.78;;;19.53;20.79
71149;BME280;59072;42.144;25.200;2023-02-20T11:50:48;100515.31;;;19.54;20.71
71149;BME280;59072;42.144;25.200;2023-02-20T11:53:21;100521.34;;;19.76;20.73
71149;BME280;59072;42.144;25.200;2023-02-20T11:58:32;100509.72;;;19.96;20.34
71149;BME280;59072;42.144;25.200;2023-02-20T12:00:57;100524.06;;;19.86;20.02
71149;BME280;59072;42.144;25.200;2023-02-20T12:05:50;100525.34;;;19.68;20.19
71149;BME280;59072;42.144;25.200;2023-02-20T12:13:40;100498.88;;;19.71;20.11
71149;BME280;59072;42.144;25.200;2023-02-20T12:16:31;100504.50;;;19.64;19.57
71149;BME280;59072;42.144;25.200;2023-02-20T12:19:30;100520.78;;;20.31;20.11
71149;BME280;59072;42.144;25.200;2023-02-20T12:54:13;100520.00;;;22.93;18.02
71149;BME280;59072;42.144;25.200;2023-02-20T12:57:20;100520.59;;;23.14;16.46
71149;BME280;59072;42.144;25.200;2023-02-20T13:00:03;100515.44;;;23.69;16.04
71149;BME280;59072;42.144;25.200;2023-02-20T13:02:38;100521.63;;;23.75;16.49
71149;BME280;59072;42.144;25.200;2023-02-20T13:05:07;100510.84;;;24.02;14.99
71149;BME280;59072;42.144;25.200;2023-02-20T13:10:10;100514.03;;;23.72;15.67
71149;BME280;59072;42.144;25.200;2023-02-20T13:12:37;100512.00;;;23.44;15.31
71149;BME280;59072;42.144;25.200;2023-02-20T13:20:30;100527.88;;;24.27;15.18
71149;BME280;59072;42.144;25.200;2023-02-20T13:25:45;100519.69;;;24.27;14.59
71149;BME280;59072;42.144;25.200;2023-02-20T13:33:39;100522.13;;;23.96;15.33
71149;BME280;59072;42.144;25.200;2023-02-20T13:36:14;100522.91;;;24.90;14.40
71149;BME280;59072;42.144;25.200;2023-02-20T13:38:40;100539.66;;;25.52;13.68
71149;BME280;59072;42.144;25.200;2023-02-20T13:41:07;100536.84;;;25.02;14.16
71149;BME280;59072;42.144;25.200;2023-02-20T13:43:37;100536.66;;;24.84;14.15
71149;BME280;59072;42.144;25.200;2023-02-20T13:58:44;100542.81;;;27.07;12.71
71149;BME280;59072;42.144;25.200;2023-02-20T14:01:10;100552.41;;;27.62;12.72
71149;BME280;59072;42.144;25.200;2023-02-20T14:03:35;100538.75;;;27.88;13.11
71149;BME280;59072;42.144;25.200;2023-02-20T14:06:14;100549.56;;;27.93;12.57
71149;BME280;59072;42.144;25.200;2023-02-20T14:08:44;100519.53;;;27.27;12.19
71149;BME280;59072;42.144;25.200;2023-02-20T14:11:25;100543.25;;;26.92;12.39
71149;BME280;59072;42.144;25.200;2023-02-20T14:13:53;100530.69;;;27.57;11.92
71149;BME280;59072;42.144;25.200;2023-02-20T14:16:35;100545.47;;;27.30;11.90
71149;BME280;59072;42.144;25.200;2023-02-20T14:19:23;100546.31;;;27.74;11.59
71149;BME280;59072;42.144;25.200;2023-02-20T14:21:50;100538.25;;;27.42;11.88
71149;BME280;59072;42.144;25.200;2023-02-20T14:24:25;100536.13;;;28.18;11.30
71149;BME280;59072;42.144;25.200;2023-02-20T14:26:51;100540.94;;;28.21;11.31
71149;BME280;59072;42.144;25.200;2023-02-20T14:31:53;100531.00;;;27.73;11.62
71149;BME280;59072;42.144;25.200;2023-02-20T14:40:11;100541.00;;;28.03;11.31
71149;BME280;59072;42.144;25.200;2023-02-20T14:42:45;100568.09;;;28.70;10.91
71149;BME280;59072;42.144;25.200;2023-02-20T14:45:18;100553.22;;;28.15;11.90
71149;BME280;59072;42.144;25.200;2023-02-20T14:47:51;100560.69;;;27.88;11.47
71149;BME280;59072;42.144;25.200;2023-02-20T14:50:23;100566.91;;;28.32;10.86
71149;BME280;59072;42.144;25.200;2023-02-20T14:53:14;100564.78;;;28.47;10.91
71149;BME280;59072;42.144;25.200;2023-02-20T14:55:45;100571.00;;;28.64;10.97
71149;BME280;59072;42.144;25.200;2023-02-20T14:58:15;100565.19;;;28.01;12.12
71149;BME280;59072;42.144;25.200;2023-02-20T15:00:43;100555.13;;;28.23;11.54
71149;BME280;59072;42.144;25.200;2023-02-20T15:03:21;100551.28;;;28.07;11.45
71149;BME280;59072;42.144;25.200;2023-02-20T15:05:48;100565.81;;;27.98;11.51
71149;BME280;59072;42.144;25.200;2023-02-20T15:08:20;100577.47;;;27.12;12.24
71149;BME280;59072;42.144;25.200;2023-02-20T15:10:56;100562.75;;;26.99;12.51
71149;BME280;59072;42.144;25.200;2023-02-20T15:13:34;100568.34;;;24.53;13.34
71149;BME280;59072;42.144;25.200;2023-02-20T15:16:24;100563.97;;;22.76;15.34
71149;BME280;59072;42.144;25.200;2023-02-20T15:18:59;100570.63;;;22.35;15.84
71149;BME280;59072;42.144;25.200;2023-02-20T15:21:40;100556.19;;;22.00;15.52
71149;BME280;59072;42.144;25.200;2023-02-20T15:24:26;100574.59;;;21.09;16.35
71149;BME280;59072;42.144;25.200;2023-02-20T15:27:18;100594.72;;;20.57;17.14